首页
METAR-TAF:

METAR-TAF

机场 :

何塞·马蒂国际机场

哈瓦那, 古巴

纬度: 22-59N, 经度: 082-24W, 海拔: 59米

当前天气观测

该预报发布于41分钟前的11:55 UTC
风速4节,风向
温度 25°C
湿度 94%
气压 1019 hPa
能見度: 9000
少量云层高于2500英尺, 塔状积云.

METAR: MUHA 181155Z 09004KT 9000 FEW025TCU 25/24 Q1019

时间: 08:36 (12:36 UTC)

预报

该预报发布于1小时和36分钟前的11:00 UTC
预报有效从18日的 12点(UTC)到 19日的 12点(UTC)
风速8节,风向
能見度: 9000
少量云层高于2000英尺
短暂存在
从 18日的 19点(UTC)到 18日的 23点(UTC)
风速10节,风向多变
能見度: 3000
少量云层高于1800英尺, 积雨云.
多云层高于2500英尺
雷暴, 雨

TAF: MUHA 181100Z 1812/1912 09008KT 9000 FEW020 TEMPO 1819/1823 VRB10KT 3000 TSRA FEW018CB BKN025

超过4000个机场的气象观测和天气预报(METAR&TAF报告)。

可查询的气象台以黄色和红色小点在地图上表示。

将鼠标移到小点上方,可查看气象台名称。

然后点击查看天气观测和预报。

如需切换地图:点击带黑十字的绿色按钮放大地图;点击带横线的绿色按钮缩小地图;或者点击绿色箭头查看邻近地区的地图。


METAR-TAF: